Time;durP1;ratioP1;P1;durP2;ratioP2;P2;SDS_P1;SDS_P2;PMS_P1;PMS_P2;Temp;Humidity;BMP_temperature;BMP_pressure;BME280_temperature;BME280_humidity;BME280_pressure;Samples;Min_cycle;Max_cycle;Signal;HPM_P1;HPM_P2
2021/09/25 00:02:00;;;;;;;3.55;3.20;;;;;;;;;;4991694;28;20373;-73
2021/09/25 00:04:26;;;;;;;4.03;3.20;;;;;;;;;;4991549;28;20022;-73
2021/09/25 00:06:51;;;;;;;5.50;3.45;;;;;;;;;;4992645;28;20300;-73
2021/09/25 00:09:16;;;;;;;5.32;3.00;;;;;;;;;;4990653;28;20073;-73
2021/09/25 00:11:42;;;;;;;3.50;2.85;;;;;;;;;;4992409;28;20014;-74
2021/09/25 00:14:07;;;;;;;3.28;2.70;;;;;;;;;;4990926;28;20526;-73
2021/09/25 00:16:32;;;;;;;4.35;2.53;;;;;;;;;;4992124;28;20564;-73
2021/09/25 00:18:58;;;;;;;3.13;2.78;;;;;;;;;;4991823;28;20484;-73
2021/09/25 00:21:24;;;;;;;4.32;2.55;;;;;;;;;;4992297;28;20023;-74
2021/09/25 00:23:49;;;;;;;3.45;2.42;;;;;;;;;;4988829;28;20077;-74
2021/09/25 00:26:14;;;;;;;2.65;2.35;;;;;;;;;;4974469;28;20523;-73
2021/09/25 00:28:39;;;;;;;3.17;2.72;;;;;;;;;;4990354;28;20030;-74
2021/09/25 00:31:05;;;;;;;2.88;2.40;;;;;;;;;;4992377;28;20034;-73
2021/09/25 00:33:30;;;;;;;3.85;2.72;;;;;;;;;;4991197;28;20034;-73
2021/09/25 00:35:55;;;;;;;4.07;2.80;;;;;;;;;;4992419;28;20466;-73
2021/09/25 00:38:20;;;;;;;2.57;2.37;;;;;;;;;;4991052;28;20061;-73
2021/09/25 00:40:45;;;;;;;4.43;2.92;;;;;;;;;;4998338;28;20277;-73
2021/09/25 00:43:11;;;;;;;2.47;2.28;;;;;;;;;;4998593;28;20106;-73
2021/09/25 00:45:36;;;;;;;3.40;2.65;;;;;;;;;;4998849;28;20033;-73
2021/09/25 00:48:01;;;;;;;4.47;2.55;;;;;;;;;;4998644;28;20022;-73
2021/09/25 00:50:27;;;;;;;3.25;2.50;;;;;;;;;;4997230;28;20472;-73
2021/09/25 00:52:54;;;;;;;3.10;2.80;;;;;;;;;;4997145;28;20049;-73
2021/09/25 00:55:19;;;;;;;4.90;3.13;;;;;;;;;;4994341;28;20125;-73
2021/09/25 00:57:44;;;;;;;3.70;2.83;;;;;;;;;;4984469;28;20053;-72
2021/09/25 01:00:10;;;;;;;4.63;2.88;;;;;;;;;;5017569;28;20061;-73
2021/09/25 01:02:35;;;;;;;3.10;2.78;;;;;;;;;;5000352;28;20086;-72
2021/09/25 01:05:00;;;;;;;4.25;2.80;;;;;;;;;;5000376;28;20081;-73
2021/09/25 01:07:25;;;;;;;5.20;2.80;;;;;;;;;;5018406;28;20392;-73
2021/09/25 01:09:51;;;;;;;3.42;2.63;;;;;;;;;;5018248;28;20100;-73
2021/09/25 01:12:16;;;;;;;3.33;2.50;;;;;;;;;;4999890;28;20045;-72
2021/09/25 01:14:41;;;;;;;4.40;2.97;;;;;;;;;;5017487;28;20542;-72
2021/09/25 01:17:08;;;;;;;2.73;2.50;;;;;;;;;;5000279;28;20301;-73
2021/09/25 01:19:33;;;;;;;3.92;2.80;;;;;;;;;;5018417;28;20269;-73
2021/09/25 01:21:59;;;;;;;4.70;2.67;;;;;;;;;;5017407;28;20029;-74
2021/09/25 01:24:24;;;;;;;4.32;2.80;;;;;;;;;;5015665;28;20464;-73
2021/09/25 01:26:49;;;;;;;2.78;2.58;;;;;;;;;;5000536;28;20387;-73
2021/09/25 01:29:14;;;;;;;3.47;2.38;;;;;;;;;;5018087;28;20080;-73
2021/09/25 01:31:39;;;;;;;3.30;2.92;;;;;;;;;;4984081;28;20391;-73
2021/09/25 01:34:05;;;;;;;3.83;3.08;;;;;;;;;;5016000;28;20105;-73
2021/09/25 01:36:30;;;;;;;4.40;2.80;;;;;;;;;;5014139;28;20164;-73
2021/09/25 01:38:55;;;;;;;2.88;2.58;;;;;;;;;;5018008;28;20144;-72
2021/09/25 01:41:20;;;;;;;3.33;3.03;;;;;;;;;;5018186;28;20073;-73
2021/09/25 01:43:46;;;;;;;4.05;3.00;;;;;;;;;;4998792;28;20040;-70
2021/09/25 01:46:11;;;;;;;5.80;3.20;;;;;;;;;;5017803;28;20026;-72
2021/09/25 01:48:36;;;;;;;3.50;3.20;;;;;;;;;;5000425;28;20022;-73
2021/09/25 01:51:02;;;;;;;4.32;2.80;;;;;;;;;;5014830;28;20123;-73
2021/09/25 01:53:27;;;;;;;3.50;3.17;;;;;;;;;;5011538;28;20029;-72
2021/09/25 01:55:52;;;;;;;5.03;2.78;;;;;;;;;;5014431;28;20025;-72
2021/09/25 01:58:18;;;;;;;3.60;2.92;;;;;;;;;;5014610;28;20557;-72
2021/09/25 02:00:43;;;;;;;3.60;3.30;;;;;;;;;;5014678;28;20018;-73
2021/09/25 02:03:11;;;;;;;3.53;3.10;;;;;;;;;;4996412;28;20041;-73
2021/09/25 02:05:36;;;;;;;3.30;3.10;;;;;;;;;;4996324;28;20347;-73
2021/09/25 02:08:04;;;;;;;2.97;2.67;;;;;;;;;;5014922;28;20029;-72
2021/09/25 02:10:29;;;;;;;4.32;2.90;;;;;;;;;;4997211;28;20391;-73
2021/09/25 02:12:54;;;;;;;2.60;2.40;;;;;;;;;;5014026;28;20037;-72
2021/09/25 02:15:20;;;;;;;2.63;2.43;;;;;;;;;;4997938;28;20553;-72
2021/09/25 02:17:45;;;;;;;3.55;2.72;;;;;;;;;;4996530;28;20284;-73
2021/09/25 02:20:11;;;;;;;3.22;2.95;;;;;;;;;;5014327;28;20021;-72
2021/09/25 02:22:36;;;;;;;3.60;2.72;;;;;;;;;;5013310;28;20177;-73
2021/09/25 02:25:03;;;;;;;3.13;2.83;;;;;;;;;;4977841;28;20057;-72
2021/09/25 02:27:28;;;;;;;5.07;2.55;;;;;;;;;;4996145;28;20021;-73
2021/09/25 02:29:53;;;;;;;2.95;2.67;;;;;;;;;;5013766;28;20038;-74
2021/09/25 02:32:19;;;;;;;3.67;3.00;;;;;;;;;;4996372;28;20037;-74
2021/09/25 02:34:44;;;;;;;3.53;2.03;;;;;;;;;;5013788;28;20033;-74
2021/09/25 02:37:09;;;;;;;2.80;2.58;;;;;;;;;;4995330;28;20491;-73
2021/09/25 02:39:34;;;;;;;3.35;2.72;;;;;;;;;;4996068;28;20022;-72
2021/09/25 02:41:59;;;;;;;2.97;2.33;;;;;;;;;;4996052;28;20030;-73
2021/09/25 02:44:25;;;;;;;3.03;2.72;;;;;;;;;;4995311;28;20042;-73
2021/09/25 02:46:50;;;;;;;3.00;2.50;;;;;;;;;;4996141;28;20506;-73
2021/09/25 02:49:19;;;;;;;2.65;2.00;;;;;;;;;;4996051;28;20028;-73
2021/09/25 02:51:45;;;;;;;4.65;2.58;;;;;;;;;;5012905;28;20113;-73
2021/09/25 02:54:10;;;;;;;3.03;2.38;;;;;;;;;;4974384;28;20157;-73
2021/09/25 02:56:36;;;;;;;3.33;2.80;;;;;;;;;;4993604;28;20536;-73
2021/09/25 02:59:01;;;;;;;2.92;2.15;;;;;;;;;;4992360;28;20465;-73
2021/09/25 03:01:27;;;;;;;4.68;2.75;;;;;;;;;;4994048;28;20105;-73
2021/09/25 03:03:54;;;;;;;2.90;2.30;;;;;;;;;;4993599;28;20065;-73
2021/09/25 03:06:20;;;;;;;2.80;2.60;;;;;;;;;;4993055;28;20379;-73
2021/09/25 03:08:46;;;;;;;2.65;2.13;;;;;;;;;;4993334;28;20089;-73
2021/09/25 03:11:11;;;;;;;2.43;2.23;;;;;;;;;;4992356;28;20026;-73
2021/09/25 03:13:36;;;;;;;2.63;2.07;;;;;;;;;;4975884;28;20277;-72
2021/09/25 03:16:01;;;;;;;2.53;2.10;;;;;;;;;;4991868;28;20292;-73
2021/09/25 03:18:27;;;;;;;2.20;2.00;;;;;;;;;;4992194;28;20018;-73
2021/09/25 03:20:52;;;;;;;3.93;2.27;;;;;;;;;;4991600;28;20480;-73
2021/09/25 03:23:17;;;;;;;4.13;2.00;;;;;;;;;;4991551;28;20285;-73
2021/09/25 03:25:42;;;;;;;3.80;2.47;;;;;;;;;;4992347;28;20294;-74
2021/09/25 03:28:08;;;;;;;2.25;1.90;;;;;;;;;;4991782;28;20062;-74
2021/09/25 03:30:33;;;;;;;3.08;2.10;;;;;;;;;;4992850;28;20054;-73
2021/09/25 03:32:58;;;;;;;3.80;1.92;;;;;;;;;;4992051;28;20421;-72
2021/09/25 03:35:24;;;;;;;2.78;1.95;;;;;;;;;;4989652;28;20539;-72
2021/09/25 03:37:49;;;;;;;3.17;1.90;;;;;;;;;;4985673;28;20030;-73
2021/09/25 03:40:14;;;;;;;3.25;2.00;;;;;;;;;;4975547;28;20484;-72
2021/09/25 03:42:40;;;;;;;1.90;1.70;;;;;;;;;;4992818;28;20049;-73
2021/09/25 03:45:06;;;;;;;8.07;1.80;;;;;;;;;;4992736;28;20080;-72
2021/09/25 03:47:31;;;;;;;2.42;1.85;;;;;;;;;;4993038;28;20033;-73
2021/09/25 03:49:56;;;;;;;2.55;2.08;;;;;;;;;;4991947;28;20396;-73
2021/09/25 03:52:21;;;;;;;2.35;2.10;;;;;;;;;;4993045;28;20501;-73
2021/09/25 03:54:46;;;;;;;2.10;1.90;;;;;;;;;;4970206;28;20055;-73
2021/09/25 03:57:13;;;;;;;3.13;1.85;;;;;;;;;;4992751;28;20292;-73
2021/09/25 03:59:38;;;;;;;2.97;1.70;;;;;;;;;;4990959;28;20098;-73
2021/09/25 04:02:03;;;;;;;2.53;1.75;;;;;;;;;;4992544;28;20270;-73
2021/09/25 04:04:28;;;;;;;2.40;1.90;;;;;;;;;;4991405;28;20435;-74
2021/09/25 04:06:53;;;;;;;3.70;1.80;;;;;;;;;;4991955;28;20061;-74
2021/09/25 04:09:19;;;;;;;3.05;2.20;;;;;;;;;;4991231;28;20710;-74
2021/09/25 04:11:48;;;;;;;3.25;2.60;;;;;;;;;;4992670;28;20026;-74
2021/09/25 04:14:15;;;;;;;2.47;2.28;;;;;;;;;;4990258;28;20117;-74
2021/09/25 04:16:40;;;;;;;3.55;2.60;;;;;;;;;;4992515;28;20030;-74
2021/09/25 04:19:05;;;;;;;2.83;2.23;;;;;;;;;;4992348;28;20305;-73
2021/09/25 04:21:30;;;;;;;2.40;2.20;;;;;;;;;;4990485;28;20265;-74
2021/09/25 04:23:56;;;;;;;5.80;3.08;;;;;;;;;;4990252;28;20760;-74
2021/09/25 04:26:21;;;;;;;3.05;2.78;;;;;;;;;;4992499;28;20580;-74
2021/09/25 04:28:46;;;;;;;2.35;2.15;;;;;;;;;;4992185;28;20057;-74
2021/09/25 04:31:11;;;;;;;3.78;2.53;;;;;;;;;;4991818;28;20160;-74
2021/09/25 04:33:37;;;;;;;3.63;2.45;;;;;;;;;;4992167;28;20030;-74
2021/09/25 04:36:02;;;;;;;2.80;2.40;;;;;;;;;;4992538;28;20395;-74
2021/09/25 04:38:27;;;;;;;3.00;2.53;;;;;;;;;;4992378;28;20026;-74
2021/09/25 04:40:52;;;;;;;3.57;2.23;;;;;;;;;;4992230;28;20029;-74
2021/09/25 04:43:17;;;;;;;2.40;2.20;;;;;;;;;;4991110;28;20316;-73
2021/09/25 04:45:42;;;;;;;3.67;2.25;;;;;;;;;;4974432;28;20307;-73
2021/09/25 04:48:08;;;;;;;2.72;2.53;;;;;;;;;;4992586;28;20041;-73
2021/09/25 04:50:33;;;;;;;2.75;2.55;;;;;;;;;;4990801;28;20034;-73
2021/09/25 04:53:08;;;;;;;3.55;3.00;;;;;;;;;;4990452;28;20022;-72
2021/09/25 04:55:33;;;;;;;3.10;2.80;;;;;;;;;;4990141;28;20386;-72
2021/09/25 04:57:58;;;;;;;3.40;3.10;;;;;;;;;;5011683;28;20029;-72
2021/09/25 05:00:24;;;;;;;2.78;2.58;;;;;;;;;;5011427;28;20014;-72
2021/09/25 05:02:49;;;;;;;3.17;2.78;;;;;;;;;;4993419;28;20034;-72
2021/09/25 05:05:15;;;;;;;5.68;2.78;;;;;;;;;;5012409;28;20065;-73
2021/09/25 05:07:40;;;;;;;2.75;2.55;;;;;;;;;;5011750;28;20537;-72
2021/09/25 05:10:05;;;;;;;3.63;2.88;;;;;;;;;;4977917;28;20030;-72
2021/09/25 05:12:30;;;;;;;4.50;3.08;;;;;;;;;;4993916;28;20058;-73
2021/09/25 05:14:56;;;;;;;3.78;2.70;;;;;;;;;;4993285;28;20061;-72
2021/09/25 05:17:21;;;;;;;3.38;2.97;;;;;;;;;;5011349;28;20021;-72
2021/09/25 05:19:47;;;;;;;3.58;2.65;;;;;;;;;;4994072;28;20022;-72
2021/09/25 05:22:13;;;;;;;2.83;2.42;;;;;;;;;;4993779;28;20483;-74
2021/09/25 05:24:38;;;;;;;2.90;2.70;;;;;;;;;;4990727;28;20033;-72
2021/09/25 05:27:04;;;;;;;2.92;2.42;;;;;;;;;;4996368;28;20026;-72
2021/09/25 05:29:29;;;;;;;2.55;2.17;;;;;;;;;;5014827;28;20025;-73
2021/09/25 05:31:58;;;;;;;4.07;2.75;;;;;;;;;;4980482;28;20025;-73
2021/09/25 05:34:23;;;;;;;3.90;2.38;;;;;;;;;;5001333;28;20018;-74
2021/09/25 05:36:48;;;;;;;4.05;2.35;;;;;;;;;;4996688;28;20112;-74
2021/09/25 05:39:13;;;;;;;3.15;2.28;;;;;;;;;;4997253;28;20114;-73
2021/09/25 05:41:38;;;;;;;2.35;2.15;;;;;;;;;;5014543;28;20041;-73
2021/09/25 05:44:04;;;;;;;2.92;2.30;;;;;;;;;;5014413;28;20033;-74
2021/09/25 05:46:29;;;;;;;2.60;2.40;;;;;;;;;;5014341;28;20416;-73
2021/09/25 05:48:54;;;;;;;2.72;2.00;;;;;;;;;;4996949;28;20392;-74
2021/09/25 05:51:19;;;;;;;2.38;2.17;;;;;;;;;;4996860;28;20036;-74
2021/09/25 05:53:45;;;;;;;2.42;1.80;;;;;;;;;;5012925;28;20030;-74
2021/09/25 05:56:10;;;;;;;3.47;2.40;;;;;;;;;;5014186;28;20036;-75
2021/09/25 05:58:35;;;;;;;4.10;2.38;;;;;;;;;;4997431;28;20518;-73
2021/09/25 06:01:00;;;;;;;2.25;2.05;;;;;;;;;;4979338;28;20076;-73
2021/09/25 06:03:26;;;;;;;3.80;2.60;;;;;;;;;;5013815;28;20084;-74
2021/09/25 06:05:51;;;;;;;2.60;2.00;;;;;;;;;;5014227;28;20620;-74
2021/09/25 06:08:16;;;;;;;5.25;2.60;;;;;;;;;;4995668;28;20065;-73
2021/09/25 06:10:42;;;;;;;3.45;2.38;;;;;;;;;;4980688;28;20068;-73
2021/09/25 06:13:10;;;;;;;2.42;2.20;;;;;;;;;;4979739;28;20026;-73
2021/09/25 06:15:35;;;;;;;4.72;2.38;;;;;;;;;;5013710;28;20022;-73
2021/09/25 06:18:01;;;;;;;3.20;2.25;;;;;;;;;;4994518;28;20022;-74
2021/09/25 06:20:26;;;;;;;2.88;2.30;;;;;;;;;;4995740;28;20029;-74
2021/09/25 06:22:51;;;;;;;2.63;2.43;;;;;;;;;;4995515;28;20052;-80
2021/09/25 06:25:17;;;;;;;2.45;2.22;;;;;;;;;;4981190;28;20277;-76
2021/09/25 06:27:42;;;;;;;3.25;2.20;;;;;;;;;;4995478;28;20104;-75
2021/09/25 06:30:08;;;;;;;3.75;2.22;;;;;;;;;;4995399;28;20036;-76
2021/09/25 06:32:33;;;;;;;2.33;1.98;;;;;;;;;;4995955;28;20029;-77
2021/09/25 06:34:58;;;;;;;2.38;2.17;;;;;;;;;;5013570;28;20029;-79
2021/09/25 06:37:23;;;;;;;2.75;2.35;;;;;;;;;;4978987;28;20018;-77
2021/09/25 06:39:48;;;;;;;2.47;2.28;;;;;;;;;;4996259;28;20022;-81
2021/09/25 06:42:14;;;;;;;2.50;2.25;;;;;;;;;;4995684;28;20033;-77
2021/09/25 06:44:54;;;;;;;2.38;2.17;;;;;;;;;;5013154;28;20156;-79
2021/09/25 06:47:19;;;;;;;2.83;2.50;;;;;;;;;;4995464;28;20373;-77
2021/09/25 06:49:45;;;;;;;2.63;2.43;;;;;;;;;;4979146;28;20468;-80
2021/09/25 06:52:10;;;;;;;3.30;2.50;;;;;;;;;;4986648;28;20368;-82
2021/09/25 06:54:37;;;;;;;2.30;2.10;;;;;;;;;;4988420;28;20293;-78
2021/09/25 06:57:02;;;;;;;2.42;2.20;;;;;;;;;;4991151;28;20030;-78
2021/09/25 06:59:28;;;;;;;3.47;2.38;;;;;;;;;;4994147;28;20443;-79
2021/09/25 07:01:53;;;;;;;3.20;2.40;;;;;;;;;;4985397;28;20035;-82
2021/09/25 07:04:18;;;;;;;4.35;2.33;;;;;;;;;;4992026;28;20265;-81
2021/09/25 07:06:43;;;;;;;3.05;2.58;;;;;;;;;;4973292;28;20125;-81
2021/09/25 07:09:09;;;;;;;2.28;2.13;;;;;;;;;;4995854;28;20030;-77
2021/09/25 07:11:34;;;;;;;3.60;2.28;;;;;;;;;;4992241;28;20030;-77
2021/09/25 07:14:00;;;;;;;2.30;1.95;;;;;;;;;;4991488;28;20034;-76
2021/09/25 07:16:25;;;;;;;3.47;2.45;;;;;;;;;;4992534;28;20022;-77
2021/09/25 07:18:50;;;;;;;2.95;2.40;;;;;;;;;;4989085;28;20458;-78
2021/09/25 07:21:15;;;;;;;2.63;2.42;;;;;;;;;;4975758;28;20088;-75
2021/09/25 07:23:41;;;;;;;2.58;2.10;;;;;;;;;;4972528;28;20101;-76
2021/09/25 07:26:06;;;;;;;2.90;2.22;;;;;;;;;;4986331;28;20027;-76
2021/09/25 07:28:33;;;;;;;2.90;2.65;;;;;;;;;;4992061;28;20049;-77
2021/09/25 07:30:59;;;;;;;3.22;2.40;;;;;;;;;;4990522;28;20040;-75
2021/09/25 07:33:24;;;;;;;2.30;2.10;;;;;;;;;;4993415;28;20536;-75
2021/09/25 07:35:49;;;;;;;3.35;2.40;;;;;;;;;;4991034;28;20085;-76
2021/09/25 07:38:15;;;;;;;2.43;2.23;;;;;;;;;;4993091;28;20035;-76
2021/09/25 07:40:40;;;;;;;2.63;2.28;;;;;;;;;;4984531;28;20281;-76
2021/09/25 07:43:05;;;;;;;2.50;2.30;;;;;;;;;;4975151;28;20038;-76
2021/09/25 07:45:31;;;;;;;3.33;2.30;;;;;;;;;;4989180;28;20443;-75
2021/09/25 07:47:56;;;;;;;2.83;2.47;;;;;;;;;;4992902;28;20034;-75
2021/09/25 07:50:22;;;;;;;2.33;2.13;;;;;;;;;;4992111;28;20108;-76
2021/09/25 07:52:47;;;;;;;3.40;1.90;;;;;;;;;;4991730;28;20040;-76
2021/09/25 07:55:13;;;;;;;3.30;2.38;;;;;;;;;;5010376;28;20332;-76
2021/09/25 07:57:39;;;;;;;2.17;1.73;;;;;;;;;;5006019;28;20030;-76
2021/09/25 08:00:05;;;;;;;3.08;2.05;;;;;;;;;;5011745;28;20029;-76
2021/09/25 08:02:30;;;;;;;2.33;2.10;;;;;;;;;;5012254;28;20030;-77
2021/09/25 08:04:55;;;;;;;2.30;2.10;;;;;;;;;;5004911;28;20509;-76
2021/09/25 08:07:21;;;;;;;4.40;2.47;;;;;;;;;;4985282;28;20267;-76
2021/09/25 08:09:46;;;;;;;3.78;2.72;;;;;;;;;;4978035;28;20386;-75
2021/09/25 08:12:11;;;;;;;4.25;2.50;;;;;;;;;;5011896;28;20014;-75
2021/09/25 08:14:36;;;;;;;3.13;2.10;;;;;;;;;;5026707;28;20022;-76
2021/09/25 08:17:02;;;;;;;3.58;2.20;;;;;;;;;;5008789;28;20033;-77
2021/09/25 08:19:27;;;;;;;2.65;2.10;;;;;;;;;;5010641;28;20014;-77
2021/09/25 08:21:52;;;;;;;3.85;2.72;;;;;;;;;;5011757;28;20057;-76
2021/09/25 08:24:17;;;;;;;3.10;2.10;;;;;;;;;;4989348;28;20480;-76
2021/09/25 08:26:43;;;;;;;2.50;1.95;;;;;;;;;;5011254;28;20371;-76
2021/09/25 08:29:08;;;;;;;4.22;2.20;;;;;;;;;;5011693;28;20018;-75
2021/09/25 08:31:33;;;;;;;3.73;2.43;;;;;;;;;;4994301;28;20476;-77
2021/09/25 08:33:58;;;;;;;3.03;2.30;;;;;;;;;;5009250;28;20277;-76
2021/09/25 08:36:24;;;;;;;3.75;2.40;;;;;;;;;;4993897;28;20022;-76
2021/09/25 08:38:49;;;;;;;2.65;2.20;;;;;;;;;;5007676;28;20018;-75
2021/09/25 08:41:15;;;;;;;2.80;2.43;;;;;;;;;;5009269;28;20029;-76
2021/09/25 08:43:40;;;;;;;2.72;2.33;;;;;;;;;;4988097;28;20276;-76
2021/09/25 08:46:05;;;;;;;2.13;1.98;;;;;;;;;;5010302;28;20534;-76
2021/09/25 08:48:32;;;;;;;2.60;2.40;;;;;;;;;;4993426;28;20053;-76
2021/09/25 08:50:57;;;;;;;2.50;2.13;;;;;;;;;;4993562;28;20499;-76
2021/09/25 08:53:22;;;;;;;2.55;2.33;;;;;;;;;;5002498;28;20057;-77
2021/09/25 08:55:48;;;;;;;2.60;2.25;;;;;;;;;;5004447;28;20062;-76
2021/09/25 08:58:13;;;;;;;2.83;2.10;;;;;;;;;;5011289;28;20018;-76
2021/09/25 09:00:40;;;;;;;2.92;2.50;;;;;;;;;;5012339;28;20030;-76
2021/09/25 09:03:16;;;;;;;2.03;1.80;;;;;;;;;;4997341;28;20026;-76
2021/09/25 09:05:41;;;;;;;2.22;1.90;;;;;;;;;;5001872;28;20033;-76
2021/09/25 09:08:06;;;;;;;2.45;2.22;;;;;;;;;;4997337;28;20025;-77
2021/09/25 09:10:32;;;;;;;2.22;2.00;;;;;;;;;;4997110;28;20033;-75
2021/09/25 09:12:58;;;;;;;2.38;2.08;;;;;;;;;;4997615;28;20032;-76
2021/09/25 09:15:29;;;;;;;2.65;2.13;;;;;;;;;;4996236;28;20026;-75
2021/09/25 09:17:54;;;;;;;2.00;1.90;;;;;;;;;;5014953;28;20468;-75
2021/09/25 09:20:19;;;;;;;3.60;2.03;;;;;;;;;;4997431;28;20044;-76
2021/09/25 09:22:45;;;;;;;3.17;1.73;;;;;;;;;;5006532;28;20260;-76
2021/09/25 09:25:10;;;;;;;2.67;2.00;;;;;;;;;;5005790;28;20037;-75
2021/09/25 09:27:43;;;;;;;3.00;1.90;;;;;;;;;;4996787;28;20610;-77
2021/09/25 09:30:09;;;;;;;2.58;2.38;;;;;;;;;;4996639;28;20277;-77
2021/09/25 09:32:41;;;;;;;3.30;1.35;;;;;;;;;;4996191;28;20387;-77
2021/09/25 09:35:10;;;;;;;1.85;1.58;;;;;;;;;;5004044;28;20039;-76
2021/09/25 09:37:36;;;;;;;2.80;1.48;;;;;;;;;;4996731;28;20049;-77
2021/09/25 09:40:02;;;;;;;2.38;1.27;;;;;;;;;;5014427;28;20107;-77
2021/09/25 09:42:47;;;;;;;2.05;1.13;;;;;;;;;;5009934;28;20033;-76
2021/09/25 09:45:23;;;;;;;1.43;0.67;;;;;;;;;;5010997;28;20041;-76
2021/09/25 09:47:48;;;;;;;1.55;0.70;;;;;;;;;;5010874;28;20527;-77
2021/09/25 09:50:14;;;;;;;0.90;0.77;;;;;;;;;;5014166;28;20101;-76
2021/09/25 09:52:39;;;;;;;1.50;0.85;;;;;;;;;;4993206;28;20273;-76
2021/09/25 09:55:06;;;;;;;1.00;0.70;;;;;;;;;;5002721;28;20057;-76
2021/09/25 09:57:33;;;;;;;0.98;0.82;;;;;;;;;;4993831;28;20276;-76
2021/09/25 09:59:59;;;;;;;2.47;1.05;;;;;;;;;;5013927;28;20018;-76
2021/09/25 10:02:24;;;;;;;1.92;0.90;;;;;;;;;;5014772;28;20054;-77
2021/09/25 10:04:49;;;;;;;1.40;0.90;;;;;;;;;;5013933;28;20053;-76
2021/09/25 10:07:14;;;;;;;1.70;1.23;;;;;;;;;;4976997;28;20125;-76
2021/09/25 10:09:40;;;;;;;2.40;1.80;;;;;;;;;;5007663;28;20265;-76
2021/09/25 10:12:05;;;;;;;1.85;1.10;;;;;;;;;;5012475;28;20280;-77
2021/09/25 10:14:32;;;;;;;1.33;0.68;;;;;;;;;;5013642;28;20025;-77
2021/09/25 10:16:59;;;;;;;1.13;0.70;;;;;;;;;;5013452;28;20084;-77
2021/09/25 10:19:30;;;;;;;5.18;0.70;;;;;;;;;;5013568;28;20053;-76
2021/09/25 10:21:57;;;;;;;2.22;0.70;;;;;;;;;;4996331;28;20018;-77
2021/09/25 10:24:25;;;;;;;0.70;0.60;;;;;;;;;;4994053;28;20014;-77
2021/09/25 10:26:51;;;;;;;0.98;0.95;;;;;;;;;;4996532;28;20040;-75
2021/09/25 10:29:21;;;;;;;1.40;1.00;;;;;;;;;;4995646;28;20026;-75
2021/09/25 10:31:46;;;;;;;1.30;1.20;;;;;;;;;;5011692;28;20018;-77
2021/09/25 10:34:11;;;;;;;1.95;1.23;;;;;;;;;;4979346;28;20029;-78
2021/09/25 10:36:48;;;;;;;1.73;0.63;;;;;;;;;;5013828;28;20025;-78
2021/09/25 10:39:16;;;;;;;0.90;0.75;;;;;;;;;;4995682;28;20300;-77
2021/09/25 10:41:43;;;;;;;1.80;1.02;;;;;;;;;;4995610;28;20021;-78
2021/09/25 10:44:22;;;;;;;1.27;0.60;;;;;;;;;;5013853;28;20100;-78
2021/09/25 10:46:47;;;;;;;1.08;0.90;;;;;;;;;;5014248;28;20049;-77
2021/09/25 10:49:13;;;;;;;0.80;0.70;;;;;;;;;;5013041;28;20061;-78
2021/09/25 10:51:41;;;;;;;2.22;0.98;;;;;;;;;;5012981;28;20024;-77
2021/09/25 10:54:06;;;;;;;1.13;0.73;;;;;;;;;;5012330;28;20137;-76
2021/09/25 10:56:31;;;;;;;0.60;0.45;;;;;;;;;;5013420;28;20108;-78
2021/09/25 10:59:01;;;;;;;1.10;0.93;;;;;;;;;;4995784;28;20025;-78
2021/09/25 11:01:33;;;;;;;2.13;1.00;;;;;;;;;;5012662;28;20029;-76
2021/09/25 11:04:01;;;;;;;1.63;0.93;;;;;;;;;;4995304;28;20026;-77
2021/09/25 11:06:26;;;;;;;1.15;1.00;;;;;;;;;;5012925;28;20017;-77
2021/09/25 11:08:52;;;;;;;1.00;0.60;;;;;;;;;;5008150;28;20072;-79
2021/09/25 11:11:18;;;;;;;1.05;0.73;;;;;;;;;;4995121;28;20105;-77
2021/09/25 11:14:05;;;;;;;1.67;0.82;;;;;;;;;;4994315;28;20030;-79
2021/09/25 11:16:43;;;;;;;2.90;0.80;;;;;;;;;;5011185;28;20021;-78
2021/09/25 11:19:28;;;;;;;1.00;0.73;;;;;;;;;;5014460;28;20605;-78
2021/09/25 11:21:57;;;;;;;1.13;0.70;;;;;;;;;;5013261;28;20072;-78
2021/09/25 11:24:23;;;;;;;1.45;0.85;;;;;;;;;;5011231;28;20046;-78
2021/09/25 11:26:48;;;;;;;1.35;0.63;;;;;;;;;;5012736;28;20437;-79
2021/09/25 11:29:14;;;;;;;1.30;0.83;;;;;;;;;;5000628;28;20028;-79
2021/09/25 11:31:39;;;;;;;0.97;0.80;;;;;;;;;;5031106;28;20284;-79
2021/09/25 11:34:21;;;;;;;2.05;1.17;;;;;;;;;;5001937;28;20064;-79
2021/09/25 11:36:53;;;;;;;1.13;1.10;;;;;;;;;;4995175;28;20051;-78
2021/09/25 11:39:21;;;;;;;1.52;0.93;;;;;;;;;;5011980;28;20097;-80
2021/09/25 11:42:06;;;;;;;1.45;0.73;;;;;;;;;;4994890;28;20021;-77
2021/09/25 11:44:42;;;;;;;1.05;0.52;;;;;;;;;;5011108;28;20064;-77
2021/09/25 11:47:07;;;;;;;1.25;0.80;;;;;;;;;;5012506;28;20049;-79
2021/09/25 11:49:33;;;;;;;1.52;0.70;;;;;;;;;;4994138;28;20524;-78
2021/09/25 11:51:59;;;;;;;1.23;0.80;;;;;;;;;;4994488;28;20044;-76
2021/09/25 11:54:25;;;;;;;1.53;0.67;;;;;;;;;;4969040;28;20135;-76
2021/09/25 11:56:50;;;;;;;1.52;0.75;;;;;;;;;;4975273;28;20110;-77
2021/09/25 11:59:17;;;;;;;1.93;0.63;;;;;;;;;;4992205;28;20038;-76
2021/09/25 12:01:43;;;;;;;1.10;0.68;;;;;;;;;;4991784;28;20022;-77
2021/09/25 12:04:08;;;;;;;1.15;0.63;;;;;;;;;;4990492;28;20345;-77
2021/09/25 12:06:33;;;;;;;1.40;0.70;;;;;;;;;;4992220;28;20037;-77
2021/09/25 12:08:58;;;;;;;1.37;1.00;;;;;;;;;;4992485;28;20084;-78
2021/09/25 12:11:26;;;;;;;1.07;0.90;;;;;;;;;;4974761;28;20278;-77
2021/09/25 12:13:53;;;;;;;2.35;0.60;;;;;;;;;;4992452;28;20896;-76
2021/09/25 12:16:19;;;;;;;0.90;0.80;;;;;;;;;;4989975;28;20026;-77
2021/09/25 12:18:49;;;;;;;1.70;0.80;;;;;;;;;;4990784;28;20023;-77
2021/09/25 12:21:24;;;;;;;0.80;0.60;;;;;;;;;;4991337;28;20032;-77
2021/09/25 12:24:06;;;;;;;0.77;0.50;;;;;;;;;;4982023;28;20057;-76
2021/09/25 12:26:33;;;;;;;0.70;0.70;;;;;;;;;;4989213;28;20030;-75
2021/09/25 12:28:59;;;;;;;0.80;0.77;;;;;;;;;;4990230;28;20022;-75
2021/09/25 12:31:29;;;;;;;0.93;0.90;;;;;;;;;;4989871;28;20030;-76
2021/09/25 12:33:59;;;;;;;0.50;0.50;;;;;;;;;;4990964;28;20498;-77
2021/09/25 12:36:28;;;;;;;1.33;0.68;;;;;;;;;;5005860;28;20019;-78
2021/09/25 12:38:54;;;;;;;0.70;0.50;;;;;;;;;;4992050;28;20026;-76
2021/09/25 12:41:24;;;;;;;1.45;0.50;;;;;;;;;;4990999;28;20049;-76
2021/09/25 12:43:55;;;;;;;0.80;0.40;;;;;;;;;;4992141;28;20029;-76
2021/09/25 12:46:21;;;;;;;1.23;0.70;;;;;;;;;;4991701;28;20081;-76
2021/09/25 12:49:05;;;;;;;1.13;0.70;;;;;;;;;;4970984;28;20022;-76
2021/09/25 12:51:32;;;;;;;0.60;0.60;;;;;;;;;;4984127;28;20026;-75
2021/09/25 12:53:57;;;;;;;0.88;0.40;;;;;;;;;;4987976;28;20060;-76
2021/09/25 12:56:23;;;;;;;1.75;1.00;;;;;;;;;;5011198;28;20042;-76
2021/09/25 12:58:51;;;;;;;0.98;0.95;;;;;;;;;;4993107;28;20049;-75
2021/09/25 13:01:26;;;;;;;0.70;0.60;;;;;;;;;;5010219;28;20014;-77
2021/09/25 13:03:51;;;;;;;0.95;0.60;;;;;;;;;;5012067;28;20174;-78
2021/09/25 13:06:22;;;;;;;0.70;0.52;;;;;;;;;;5003749;28;20105;-76
2021/09/25 13:08:58;;;;;;;1.08;0.70;;;;;;;;;;5011163;28;20077;-77
2021/09/25 13:11:23;;;;;;;0.98;0.60;;;;;;;;;;5010774;28;20479;-75
2021/09/25 13:14:03;;;;;;;1.38;0.68;;;;;;;;;;4992877;28;20068;-76
2021/09/25 13:16:28;;;;;;;1.60;0.65;;;;;;;;;;5010949;28;20026;-76
2021/09/25 13:18:58;;;;;;;2.60;0.60;;;;;;;;;;5010986;28;20514;-76
2021/09/25 13:21:24;;;;;;;1.30;0.60;;;;;;;;;;4991774;28;20022;-78
2021/09/25 13:23:57;;;;;;;1.25;0.70;;;;;;;;;;4971593;28;20049;-75
2021/09/25 13:26:22;;;;;;;0.80;0.70;;;;;;;;;;5009911;28;20111;-77
2021/09/25 13:28:47;;;;;;;0.63;0.50;;;;;;;;;;5011310;28;20026;-75
2021/09/25 13:31:13;;;;;;;0.93;0.70;;;;;;;;;;5010513;28;20566;-75
2021/09/25 13:33:38;;;;;;;0.90;0.60;;;;;;;;;;5010546;28;20109;-75
2021/09/25 13:36:03;;;;;;;0.73;0.47;;;;;;;;;;5001453;28;20033;-76
2021/09/25 13:38:28;;;;;;;1.88;0.90;;;;;;;;;;5012934;28;20029;-76
2021/09/25 13:40:53;;;;;;;2.60;0.90;;;;;;;;;;5015068;28;20022;-76
2021/09/25 13:43:19;;;;;;;0.77;0.70;;;;;;;;;;5010060;28;20280;-76
2021/09/25 13:45:44;;;;;;;0.97;0.70;;;;;;;;;;5010719;28;20025;-76
2021/09/25 13:48:09;;;;;;;1.57;0.77;;;;;;;;;;4995412;28;20113;-76
2021/09/25 13:50:34;;;;;;;1.02;0.80;;;;;;;;;;5014024;28;20110;-76
2021/09/25 13:53:00;;;;;;;2.17;0.70;;;;;;;;;;5012491;28;20030;-77
2021/09/25 13:55:25;;;;;;;1.70;0.70;;;;;;;;;;5010593;28;20041;-77
2021/09/25 13:57:50;;;;;;;2.13;0.80;;;;;;;;;;5013593;28;20133;-77
2021/09/25 14:00:15;;;;;;;0.77;0.60;;;;;;;;;;4996582;28;20026;-77
2021/09/25 14:02:41;;;;;;;0.98;0.88;;;;;;;;;;5004714;28;20040;-76
2021/09/25 14:05:06;;;;;;;1.50;0.80;;;;;;;;;;4984707;28;20018;-76
2021/09/25 14:07:32;;;;;;;2.67;0.80;;;;;;;;;;5013823;28;20056;-76
2021/09/25 14:09:57;;;;;;;1.00;0.90;;;;;;;;;;4980826;28;20384;-76
2021/09/25 14:12:22;;;;;;;1.40;0.77;;;;;;;;;;4994545;28;20262;-75
2021/09/25 14:14:47;;;;;;;1.48;0.70;;;;;;;;;;5007899;28;20758;-75
2021/09/25 14:17:13;;;;;;;2.00;0.87;;;;;;;;;;4996922;28;20440;-75
2021/09/25 14:19:38;;;;;;;1.55;1.00;;;;;;;;;;5010083;28;20029;-75
2021/09/25 14:22:04;;;;;;;0.90;0.80;;;;;;;;;;5013407;28;20049;-76
2021/09/25 14:24:29;;;;;;;0.80;0.80;;;;;;;;;;5011374;28;20030;-76
2021/09/25 14:26:54;;;;;;;2.15;0.93;;;;;;;;;;4995616;28;20033;-76
2021/09/25 14:29:19;;;;;;;0.60;0.60;;;;;;;;;;5014739;28;20037;-78
2021/09/25 14:31:45;;;;;;;1.08;0.90;;;;;;;;;;5013236;28;20285;-76
2021/09/25 14:34:10;;;;;;;1.20;1.00;;;;;;;;;;5013724;28;20817;-76
2021/09/25 14:36:36;;;;;;;0.90;0.82;;;;;;;;;;5013221;28;20025;-75
2021/09/25 14:39:02;;;;;;;0.98;0.80;;;;;;;;;;4995370;28;20460;-75